createdAt,value
2023-02-08T00:03:04.266Z,4.00
2023-02-08T00:08:06.358Z,4.73
2023-02-08T00:13:09.559Z,4.70
2023-02-08T00:18:12.164Z,4.17
2023-02-08T00:23:14.714Z,4.77
2023-02-08T00:28:19.873Z,4.57
2023-02-08T00:33:21.928Z,3.57
2023-02-08T00:38:23.697Z,3.73
2023-02-08T00:43:27.036Z,4.07
2023-02-08T00:48:29.324Z,4.43
2023-02-08T00:53:31.816Z,3.83
2023-02-08T00:58:36.251Z,3.40
2023-02-08T01:03:40.342Z,4.97
2023-02-08T01:08:42.590Z,4.80
2023-02-08T01:13:46.087Z,4.93
2023-02-08T01:18:50.704Z,4.67
2023-02-08T01:23:52.936Z,4.70
2023-02-08T01:28:57.353Z,5.00
2023-02-08T01:33:59.998Z,3.70
2023-02-08T01:39:02.508Z,4.70
2023-02-08T01:44:09.465Z,4.23
2023-02-08T01:49:16.349Z,4.50
2023-02-08T01:54:22.659Z,5.50
2023-02-08T01:59:30.316Z,3.93
2023-02-08T02:04:32.456Z,4.70
2023-02-08T02:09:41.363Z,5.67
2023-02-08T02:14:45.980Z,4.63
2023-02-08T02:19:54.874Z,4.87
2023-02-08T02:25:14.644Z,4.97
2023-02-08T02:31:02.951Z,4.97
2023-02-08T02:36:17.942Z,6.80
2023-02-08T02:41:33.768Z,5.60
2023-02-08T02:46:40.252Z,5.87
2023-02-08T02:51:49.303Z,5.47
2023-02-08T02:56:55.864Z,5.00
2023-02-08T03:01:58.177Z,6.73
2023-02-08T03:07:12.940Z,4.87
2023-02-08T03:12:36.064Z,5.33
2023-02-08T03:17:54.198Z,3.97
2023-02-08T03:23:07.808Z,5.40
2023-02-08T03:28:20.701Z,5.17
2023-02-08T03:33:29.069Z,6.50
2023-02-08T03:38:36.408Z,5.77
2023-02-08T03:43:43.200Z,6.70
2023-02-08T03:48:48.295Z,5.47
2023-02-08T03:53:54.064Z,5.67
2023-02-08T03:59:00.202Z,5.63
2023-02-08T04:04:02.422Z,6.37
2023-02-08T04:09:05.637Z,6.03
2023-02-08T04:14:07.399Z,6.03
2023-02-08T04:19:09.587Z,5.00
2023-02-08T04:24:13.033Z,5.70
2023-02-08T04:29:15.057Z,5.53
2023-02-08T04:34:17.254Z,5.83
2023-02-08T04:39:20.620Z,6.13
2023-02-08T04:44:22.771Z,5.60
2023-02-08T04:49:25.139Z,6.83
2023-02-08T04:54:28.644Z,7.37
2023-02-08T04:59:33.726Z,6.73
2023-02-08T05:04:35.937Z,6.47
2023-02-08T05:09:39.638Z,6.00
2023-02-08T05:14:41.439Z,6.10
2023-02-08T05:19:43.235Z,6.30
2023-02-08T05:24:46.333Z,7.37
2023-02-08T05:29:48.200Z,7.23
2023-02-08T05:34:50.127Z,7.37
2023-02-08T05:39:58.098Z,6.03
2023-02-08T05:45:03.114Z,8.07
2023-02-08T05:50:05.801Z,6.97
2023-02-08T05:55:09.029Z,8.00
2023-02-08T06:00:12.427Z,8.67
2023-02-08T06:05:14.545Z,7.63
2023-02-08T06:10:18.212Z,7.70
2023-02-08T06:15:20.654Z,7.57
2023-02-08T06:20:22.928Z,7.20
2023-02-08T06:25:26.376Z,7.00
2023-02-08T06:30:28.100Z,9.03
2023-02-08T06:35:30.081Z,8.43
2023-02-08T06:40:33.458Z,8.77
2023-02-08T06:45:35.742Z,7.73
2023-02-08T06:50:38.065Z,9.00
2023-02-08T06:55:41.679Z,8.13
2023-02-08T07:00:44.345Z,8.40
2023-02-08T07:05:59.008Z,8.43
2023-02-08T07:11:09.188Z,8.00
2023-02-08T07:16:11.348Z,8.83
2023-02-08T07:21:13.662Z,9.00
2023-02-08T07:26:17.225Z,9.00
2023-02-08T07:31:18.935Z,9.13
2023-02-08T07:36:21.521Z,8.07
2023-02-08T07:41:25.128Z,10.10
2023-02-08T07:46:27.292Z,9.53
2023-02-08T07:51:29.562Z,8.17
2023-02-08T07:56:33.231Z,9.90
2023-02-08T08:01:35.849Z,10.40
2023-02-08T08:06:38.140Z,10.07
2023-02-08T08:11:41.518Z,10.93
2023-02-08T08:16:43.737Z,12.03
2023-02-08T08:21:45.427Z,10.60
2023-02-08T08:26:48.815Z,11.93
2023-02-08T08:31:50.927Z,12.20
2023-02-08T08:36:52.985Z,13.17
2023-02-08T08:41:58.223Z,12.63
2023-02-08T08:47:01.130Z,12.60
2023-02-08T08:52:03.466Z,13.43
2023-02-08T08:57:07.490Z,12.77
2023-02-08T09:02:12.278Z,13.80
2023-02-08T09:07:14.559Z,14.10
2023-02-08T09:12:18.517Z,13.20
2023-02-08T09:17:20.793Z,13.80
2023-02-08T09:22:22.752Z,15.73
2023-02-08T09:27:26.218Z,13.00
2023-02-08T09:32:35.476Z,15.90
2023-02-08T09:37:38.055Z,14.87
2023-02-08T09:42:43.748Z,13.77
2023-02-08T09:47:54.720Z,14.47
2023-02-08T09:53:04.649Z,14.17
2023-02-08T09:58:19.560Z,14.20
2023-02-08T10:03:34.487Z,13.13
2023-02-08T10:08:37.561Z,14.20
2023-02-08T10:14:02.292Z,13.03
2023-02-08T10:19:12.040Z,13.07
2023-02-08T10:24:49.880Z,14.23
2023-02-08T10:30:13.249Z,11.97
2023-02-08T10:35:23.532Z,12.43
2023-02-08T10:40:37.596Z,12.60
2023-02-08T10:45:51.508Z,12.23
2023-02-08T10:50:53.521Z,12.77
2023-02-08T10:55:56.219Z,13.90
2023-02-08T11:01:01.435Z,13.70
2023-02-08T11:06:06.267Z,13.50
2023-02-08T11:11:10.542Z,13.33
2023-02-08T11:16:22.457Z,13.47
2023-02-08T11:21:27.091Z,14.47
2023-02-08T11:26:33.925Z,14.23
2023-02-08T11:31:37.725Z,13.37
2023-02-08T11:36:45.522Z,14.67
2023-02-08T11:41:51.375Z,14.20
2023-02-08T11:46:57.646Z,13.37
2023-02-08T11:51:59.867Z,13.53
2023-02-08T11:57:04.000Z,13.77
2023-02-08T12:02:28.365Z,14.67
2023-02-08T12:07:42.703Z,15.47
2023-02-08T12:13:04.983Z,12.87
2023-02-08T12:18:32.718Z,14.30
2023-02-08T12:23:50.547Z,12.90
2023-02-08T12:29:19.060Z,13.93
2023-02-08T12:34:33.191Z,13.70
2023-02-08T12:39:42.193Z,13.70
2023-02-08T12:45:00.612Z,13.30
2023-02-08T12:50:13.261Z,13.47
2023-02-08T12:55:21.968Z,12.63
2023-02-08T13:00:51.707Z,12.03
2023-02-08T13:06:06.124Z,13.13
2023-02-08T13:17:11.932Z,13.77
2023-02-08T13:22:17.236Z,12.23
2023-02-08T13:27:20.649Z,12.60
2023-02-08T13:32:27.305Z,13.07
2023-02-08T13:37:33.445Z,12.57
2023-02-08T13:42:40.259Z,12.27
2023-02-08T13:47:46.471Z,11.57
2023-02-08T13:52:54.491Z,12.23
2023-02-08T13:58:01.370Z,12.87
2023-02-08T14:03:20.898Z,12.27
2023-02-08T14:08:33.109Z,12.70
2023-02-08T14:13:40.319Z,11.60
2023-02-08T14:19:06.478Z,12.30
2023-02-08T14:24:22.948Z,12.63
2023-02-08T14:29:27.636Z,12.90
2023-02-08T14:34:34.922Z,12.67
2023-02-08T14:39:39.087Z,12.60
2023-02-08T14:44:57.479Z,14.00
2023-02-08T14:50:08.369Z,12.13
2023-02-08T14:55:20.033Z,11.70
2023-02-08T15:00:26.190Z,13.30
2023-02-08T15:05:31.352Z,12.07
2023-02-08T15:10:35.072Z,12.20
2023-02-08T15:15:40.808Z,12.60
2023-02-08T15:20:45.928Z,13.13
2023-02-08T15:25:57.653Z,11.67
2023-02-08T15:31:02.833Z,11.77
2023-02-08T15:36:08.008Z,11.13
2023-02-08T15:41:30.444Z,12.30
2023-02-08T15:46:57.716Z,11.40
2023-02-08T15:52:15.160Z,11.97
2023-02-08T15:57:36.574Z,11.67
2023-02-08T16:02:41.162Z,10.43
2023-02-08T16:07:48.394Z,10.43
2023-02-08T16:12:55.772Z,10.93
2023-02-08T16:18:00.920Z,11.33
2023-02-08T16:23:21.572Z,10.57
2023-02-08T16:28:51.152Z,10.30
2023-02-08T16:34:06.077Z,10.23
2023-02-08T16:39:40.510Z,10.73
2023-02-08T16:45:27.355Z,11.10
2023-02-08T16:50:44.458Z,10.50
2023-02-08T16:55:50.492Z,10.93
2023-02-08T17:01:06.495Z,11.23
2023-02-08T17:06:29.454Z,10.50
2023-02-08T17:11:36.483Z,11.50
2023-02-08T17:16:39.108Z,10.97
2023-02-08T17:21:42.567Z,10.63
2023-02-08T17:26:44.556Z,9.67
2023-02-08T17:31:47.723Z,9.47
2023-02-08T17:36:51.505Z,11.47
2023-02-08T17:41:53.827Z,9.43
2023-02-08T17:46:55.806Z,11.33
2023-02-08T17:51:59.542Z,9.73
2023-02-08T17:57:04.677Z,10.30
2023-02-08T18:02:07.686Z,9.90
2023-02-08T18:07:11.346Z,11.07
2023-02-08T18:12:13.613Z,9.50
2023-02-08T18:17:15.732Z,9.40
2023-02-08T18:22:18.995Z,9.37
2023-02-08T18:27:20.801Z,10.80
2023-02-08T18:32:22.724Z,9.30
2023-02-08T18:37:26.118Z,10.37
2023-02-08T18:42:28.106Z,10.67
2023-02-08T18:47:29.918Z,9.10
2023-02-08T18:52:51.998Z,12.00
2023-02-08T18:57:58.105Z,10.00
2023-02-08T19:03:00.159Z,10.67
2023-02-08T19:08:03.848Z,11.87
2023-02-08T19:13:06.225Z,10.63
2023-02-08T19:18:08.411Z,10.07
2023-02-08T19:23:12.067Z,9.37
2023-02-08T19:28:22.485Z,10.13
2023-02-08T19:33:27.058Z,8.00
2023-02-08T19:38:31.127Z,9.93
2023-02-08T19:43:34.015Z,8.13
2023-02-08T19:48:36.741Z,9.40
2023-02-08T19:53:40.530Z,8.20
2023-02-08T19:59:01.341Z,8.03
2023-02-08T20:04:04.276Z,8.87
2023-02-08T20:09:08.714Z,6.83
2023-02-08T20:14:12.601Z,7.60
2023-02-08T20:19:14.744Z,7.50
2023-02-08T20:30:03.047Z,5.97
2023-02-08T20:35:05.870Z,6.53
2023-02-08T20:40:11.165Z,7.63
2023-02-08T20:45:15.314Z,5.13
2023-02-08T20:50:19.601Z,5.30
2023-02-08T20:55:23.766Z,6.87
2023-02-08T21:00:40.196Z,6.03
2023-02-08T21:05:44.730Z,6.67
2023-02-08T21:10:48.307Z,6.43
2023-02-08T21:15:50.469Z,6.20
2023-02-08T21:20:52.653Z,6.20
2023-02-08T21:25:55.842Z,6.33
2023-02-08T21:31:00.359Z,6.50
2023-02-08T21:36:03.019Z,6.17
2023-02-08T21:41:07.839Z,5.00
2023-02-08T21:46:10.495Z,6.33
2023-02-08T21:51:12.290Z,5.53
2023-02-08T21:56:15.479Z,6.00
2023-02-08T22:01:17.337Z,5.77
2023-02-08T22:06:19.065Z,6.03
2023-02-08T22:11:22.460Z,5.83
2023-02-08T22:16:24.693Z,6.93
2023-02-08T22:21:26.496Z,6.43
2023-02-08T22:26:29.848Z,5.97
2023-02-08T22:31:31.800Z,6.00
2023-02-08T22:36:33.518Z,6.10
2023-02-08T22:41:37.098Z,7.13
2023-02-08T22:46:39.425Z,6.43
2023-02-08T22:51:41.434Z,6.80
2023-02-08T22:56:45.236Z,6.67
2023-02-08T23:01:47.424Z,6.30
2023-02-08T23:06:52.788Z,6.93
2023-02-08T23:12:00.034Z,6.43
2023-02-08T23:17:09.644Z,8.30
2023-02-08T23:22:11.870Z,6.60
2023-02-08T23:27:15.730Z,8.40
2023-02-08T23:32:17.972Z,8.40
2023-02-08T23:37:20.108Z,8.27
2023-02-08T23:42:23.522Z,7.83
2023-02-08T23:47:27.232Z,8.03
2023-02-08T23:52:29.760Z,8.27
2023-02-08T23:57:33.900Z,7.97
